createdAt,value
2022-12-11T00:00:37.481Z,89.74
2022-12-11T00:05:41.889Z,86.96
2022-12-11T00:10:49.840Z,86.44
2022-12-11T00:15:53.636Z,87.56
2022-12-11T00:21:01.883Z,87.76
2022-12-11T00:26:14.780Z,88.37
2022-12-11T00:31:19.706Z,88.37
2022-12-11T00:36:25.872Z,89.54
2022-12-11T00:41:29.323Z,89.39
2022-12-11T00:46:32.422Z,90.22
2022-12-11T00:51:35.828Z,91.57
2022-12-11T00:56:39.447Z,91.53
2022-12-11T01:01:42.968Z,92.91
2022-12-11T01:06:46.481Z,92.77
2022-12-11T01:11:49.809Z,92.44
2022-12-11T01:16:54.186Z,91.25
2022-12-11T01:21:57.801Z,89.98
2022-12-11T01:27:00.858Z,88.06
2022-12-11T01:32:04.985Z,87.92
2022-12-11T01:37:08.536Z,86.56
2022-12-11T01:42:18.949Z,87.03
2022-12-11T01:47:22.664Z,87.20
2022-12-11T01:52:26.216Z,87.48
2022-12-11T01:57:30.490Z,87.94
2022-12-11T02:02:34.369Z,86.97
2022-12-11T02:07:48.935Z,87.01
2022-12-11T02:13:02.203Z,85.77
2022-12-11T02:18:32.294Z,85.28
2022-12-11T02:23:55.581Z,85.32
2022-12-11T02:29:01.660Z,85.13
2022-12-11T02:34:13.700Z,84.69
2022-12-11T02:39:18.915Z,84.48
2022-12-11T02:44:27.102Z,85.43
2022-12-11T02:49:33.495Z,85.95
2022-12-11T02:54:38.022Z,85.55
2022-12-11T02:59:44.173Z,83.65
2022-12-11T03:04:49.034Z,82.88
2022-12-11T03:09:53.133Z,84.86
2022-12-11T03:14:59.772Z,84.90
2022-12-11T03:20:27.267Z,85.37
2022-12-11T03:25:53.660Z,84.27
2022-12-11T03:30:57.676Z,83.25
2022-12-11T03:36:11.442Z,83.04
2022-12-11T03:41:17.763Z,83.07
2022-12-11T03:46:25.342Z,78.09
2022-12-11T03:51:33.271Z,73.15
2022-12-11T03:56:39.012Z,72.32
2022-12-11T04:01:42.757Z,73.82
2022-12-11T04:06:46.230Z,74.99
2022-12-11T04:11:49.751Z,76.27
2022-12-11T04:16:53.883Z,77.44
2022-12-11T04:22:16.646Z,78.74
2022-12-11T04:27:39.805Z,79.34
2022-12-11T04:32:44.225Z,78.96
2022-12-11T04:37:48.224Z,78.28
2022-12-11T04:42:51.367Z,76.85
2022-12-11T04:47:54.628Z,79.31
2022-12-11T04:52:58.480Z,82.50
2022-12-11T04:58:01.524Z,84.39
2022-12-11T05:03:05.409Z,87.84
2022-12-11T05:08:09.386Z,89.25
2022-12-11T05:13:12.391Z,92.86
2022-12-11T05:18:15.804Z,91.30
2022-12-11T05:23:19.242Z,91.70
2022-12-11T05:28:25.150Z,92.76
2022-12-11T05:33:29.090Z,95.21
2022-12-11T05:38:32.698Z,80.85
2022-12-11T05:43:36.690Z,75.51
2022-12-11T05:48:41.763Z,72.61
2022-12-11T05:53:47.264Z,81.91
2022-12-11T05:58:51.243Z,87.10
2022-12-11T06:03:55.738Z,89.45
2022-12-11T06:09:00.812Z,91.14
2022-12-11T06:14:04.799Z,92.01
2022-12-11T06:19:08.110Z,93.12
2022-12-11T06:24:12.370Z,93.39
2022-12-11T06:29:16.113Z,88.65
2022-12-11T06:34:19.084Z,81.12
2022-12-11T06:39:23.438Z,71.26
2022-12-11T06:44:26.519Z,70.71
2022-12-11T06:49:30.737Z,67.99
2022-12-11T06:54:33.934Z,67.94
2022-12-11T06:59:37.343Z,69.97
2022-12-11T07:04:41.618Z,69.68
2022-12-11T07:09:44.650Z,70.08
2022-12-11T07:14:48.258Z,59.18
2022-12-11T07:19:51.584Z,59.51
2022-12-11T07:24:54.640Z,58.36
2022-12-11T07:29:57.989Z,58.49
2022-12-11T07:35:01.482Z,58.80
2022-12-11T07:40:05.907Z,61.08
2022-12-11T07:45:10.323Z,58.08
2022-12-11T07:50:13.755Z,56.96
2022-12-11T07:55:16.824Z,57.19
2022-12-11T08:00:20.128Z,54.80
2022-12-11T08:05:23.308Z,53.34
2022-12-11T08:10:26.955Z,53.26
2022-12-11T08:15:30.729Z,52.09
2022-12-11T08:20:34.272Z,51.76
2022-12-11T08:25:37.536Z,50.73
2022-12-11T08:30:41.861Z,52.23
2022-12-11T08:35:46.621Z,50.40
2022-12-11T08:40:50.291Z,49.48
2022-12-11T08:45:53.542Z,49.20
2022-12-11T08:51:03.918Z,47.72
2022-12-11T08:56:10.511Z,39.81
2022-12-11T09:01:17.297Z,38.60
2022-12-11T09:06:23.767Z,38.99
2022-12-11T09:11:30.445Z,40.45
2022-12-11T09:16:37.908Z,40.11
2022-12-11T09:21:43.152Z,39.87
2022-12-11T09:26:47.508Z,37.20
2022-12-11T09:31:50.747Z,38.29
2022-12-11T09:36:55.089Z,35.85
2022-12-11T09:42:16.553Z,35.76
2022-12-11T09:47:34.673Z,34.43
2022-12-11T09:52:46.697Z,29.41
2022-12-11T09:58:14.675Z,29.25
2022-12-11T10:03:39.516Z,26.01
2022-12-11T10:08:51.764Z,26.78
2022-12-11T10:53:52.381Z,34.76
2022-12-11T10:59:08.005Z,34.85
2022-12-11T11:04:45.185Z,36.18
2022-12-11T11:09:49.269Z,38.46
2022-12-11T11:15:15.509Z,35.72
2022-12-11T11:20:22.476Z,36.20
2022-12-11T11:25:29.230Z,36.91
2022-12-11T11:30:36.180Z,37.17
2022-12-11T11:35:45.542Z,37.94
2022-12-11T11:41:05.686Z,38.75
2022-12-11T11:46:13.553Z,39.02
2022-12-11T11:51:33.129Z,40.09
2022-12-11T11:56:38.870Z,39.30
2022-12-11T12:01:43.722Z,39.55
2022-12-11T12:07:21.392Z,38.38
2022-12-11T12:12:35.617Z,38.60
2022-12-11T12:17:56.816Z,37.88
2022-12-11T12:23:36.331Z,38.99
2022-12-11T12:29:03.218Z,39.01
2022-12-11T12:34:28.143Z,39.33
2022-12-11T12:39:57.297Z,38.53
2022-12-11T12:45:34.661Z,39.65
2022-12-11T12:50:49.758Z,33.75
2022-12-11T12:55:54.528Z,34.27
2022-12-11T13:01:15.637Z,32.73
2022-12-11T13:06:43.452Z,30.87
2022-12-11T13:11:53.748Z,30.76
2022-12-11T13:17:26.953Z,31.72
2022-12-11T13:22:31.485Z,30.60
2022-12-11T13:27:43.976Z,28.52
2022-12-11T13:33:09.673Z,29.15
2022-12-11T13:38:20.302Z,28.12
2022-12-11T13:43:28.423Z,26.83
2022-12-11T13:48:38.514Z,26.45
2022-12-11T13:53:41.607Z,27.24
2022-12-11T13:58:45.272Z,26.17
2022-12-11T14:03:55.044Z,26.66
2022-12-11T14:09:01.595Z,26.20
2022-12-11T14:14:18.635Z,27.60
2022-12-11T14:19:25.063Z,29.35
2022-12-11T14:24:29.681Z,32.25
2022-12-11T14:29:34.273Z,33.75
2022-12-11T14:34:46.115Z,34.63
2022-12-11T14:40:10.355Z,36.53
2022-12-11T14:45:21.831Z,36.96
2022-12-11T14:50:35.518Z,38.30
2022-12-11T14:55:40.395Z,38.98
2022-12-11T15:00:43.645Z,40.07
2022-12-11T15:05:57.118Z,42.32
2022-12-11T15:11:08.786Z,43.72
2022-12-11T15:16:15.799Z,46.05
2022-12-11T15:21:19.889Z,48.81
2022-12-11T15:26:39.622Z,49.23
2022-12-11T15:31:43.278Z,50.75
2022-12-11T15:36:46.245Z,52.22
2022-12-11T15:41:49.309Z,53.67
2022-12-11T15:46:52.240Z,54.85
2022-12-11T15:51:55.720Z,54.56
2022-12-11T15:57:02.489Z,54.85
2022-12-11T16:02:12.060Z,54.36
2022-12-11T16:07:20.380Z,54.52
2022-12-11T16:12:23.816Z,54.36
2022-12-11T16:17:26.824Z,54.94
2022-12-11T16:22:30.596Z,55.01
2022-12-11T16:27:33.516Z,54.57
2022-12-11T16:32:37.348Z,54.95
2022-12-11T16:37:40.297Z,55.00
2022-12-11T16:42:43.747Z,55.51
2022-12-11T16:47:47.371Z,56.33
2022-12-11T16:52:50.966Z,56.40
2022-12-11T16:57:54.630Z,57.62
2022-12-11T17:02:59.711Z,56.82
2022-12-11T17:08:03.411Z,56.65
2022-12-11T17:13:07.021Z,55.99
2022-12-11T17:18:12.074Z,57.00
2022-12-11T17:23:15.269Z,58.40
2022-12-11T17:28:18.994Z,60.71
2022-12-11T17:33:22.679Z,62.21
2022-12-11T17:38:26.357Z,62.60
2022-12-11T17:43:29.855Z,63.62
2022-12-11T17:48:33.565Z,64.67
2022-12-11T17:53:37.105Z,66.03
2022-12-11T17:58:40.838Z,67.69
2022-12-11T18:03:44.503Z,67.96
2022-12-11T18:08:48.111Z,69.31
2022-12-11T18:13:53.180Z,70.63
2022-12-11T18:18:57.149Z,71.71
2022-12-11T18:24:01.169Z,71.72
2022-12-11T18:29:04.681Z,71.51
2022-12-11T18:34:08.575Z,71.84
2022-12-11T18:39:11.942Z,71.94
2022-12-11T18:44:15.381Z,73.61
2022-12-11T18:49:18.594Z,71.28
2022-12-11T18:54:22.450Z,71.29
2022-12-11T18:59:25.546Z,72.31
2022-12-11T19:04:29.385Z,71.58
2022-12-11T19:09:37.004Z,71.86
2022-12-11T19:14:41.938Z,72.06
2022-12-11T19:19:46.413Z,73.34
2022-12-11T19:24:50.122Z,72.52
2022-12-11T19:29:53.373Z,73.24
2022-12-11T19:34:56.897Z,74.38
2022-12-11T19:39:59.907Z,74.26
2022-12-11T19:45:04.295Z,75.17
2022-12-11T19:50:08.257Z,74.65
2022-12-11T19:55:13.673Z,74.64
2022-12-11T20:00:17.581Z,74.55
2022-12-11T20:05:20.557Z,75.86
2022-12-11T20:10:23.945Z,75.73
2022-12-11T20:15:27.516Z,76.08
2022-12-11T20:20:32.279Z,75.98
2022-12-11T20:25:35.525Z,74.72
2022-12-11T20:30:38.899Z,73.75
2022-12-11T20:35:42.510Z,72.18
2022-12-11T20:40:47.120Z,71.79
2022-12-11T20:45:51.333Z,71.95
2022-12-11T20:50:54.946Z,71.83
2022-12-11T20:55:58.091Z,71.31
2022-12-11T21:01:01.470Z,71.07
2022-12-11T21:06:04.529Z,70.92
2022-12-11T21:11:08.253Z,70.07
2022-12-11T21:16:12.635Z,68.65
2022-12-11T21:21:17.223Z,67.25
2022-12-11T21:26:21.425Z,67.51
2022-12-11T21:31:25.391Z,67.85
2022-12-11T21:36:28.478Z,67.81
2022-12-11T21:41:31.899Z,67.25
2022-12-11T21:46:34.977Z,66.95
2022-12-11T21:51:46.880Z,64.68
2022-12-11T21:56:50.859Z,64.61
2022-12-11T22:01:54.771Z,64.96
2022-12-11T22:06:58.251Z,64.32
2022-12-11T22:12:01.213Z,63.75
2022-12-11T22:17:04.276Z,64.25
2022-12-11T22:22:07.262Z,64.99
2022-12-11T22:27:10.251Z,65.08
2022-12-11T22:32:13.223Z,65.43
2022-12-11T22:37:17.446Z,65.71
2022-12-11T22:42:20.870Z,65.95
2022-12-11T22:47:24.443Z,65.86
2022-12-11T22:52:27.617Z,65.93
2022-12-11T22:57:31.331Z,66.38
2022-12-11T23:02:34.440Z,66.29
2022-12-11T23:07:37.760Z,65.12
2022-12-11T23:12:41.853Z,65.68
2022-12-11T23:17:44.775Z,65.10
2022-12-11T23:22:48.353Z,65.58
2022-12-11T23:27:51.896Z,66.37
2022-12-11T23:32:55.281Z,66.09
2022-12-11T23:37:58.330Z,66.45
2022-12-11T23:43:01.549Z,66.52
2022-12-11T23:48:05.006Z,66.03
2022-12-11T23:53:08.876Z,65.68
2022-12-11T23:58:13.150Z,66.19
